createdAt,value
2019-02-06T00:01:01.294Z,34.60
2019-02-06T00:03:30.521Z,31.83
2019-02-06T00:06:00.346Z,32.07
2019-02-06T00:08:30.072Z,30.50
2019-02-06T00:10:59.642Z,32.30
2019-02-06T00:13:31.680Z,30.83
2019-02-06T00:16:00.860Z,28.90
2019-02-06T00:18:30.399Z,27.50
2019-02-06T00:21:00.317Z,29.42
2019-02-06T00:23:29.534Z,29.03
2019-02-06T00:25:58.818Z,29.47
2019-02-06T00:28:28.008Z,27.10
2019-02-06T00:30:57.846Z,27.80
2019-02-06T00:33:27.019Z,26.87
2019-02-06T00:35:56.407Z,26.47
2019-02-06T00:38:25.672Z,26.13
2019-02-06T00:40:54.847Z,26.80
2019-02-06T00:43:24.576Z,26.13
2019-02-06T00:45:54.034Z,23.30
2019-02-06T00:48:23.249Z,23.23
2019-02-06T00:50:52.842Z,21.97
2019-02-06T00:53:22.148Z,20.90
2019-02-06T00:55:51.818Z,22.30
2019-02-06T00:58:21.317Z,19.20
2019-02-06T01:00:50.520Z,20.03
2019-02-06T01:03:20.196Z,19.53
2019-02-06T01:05:49.674Z,18.40
2019-02-06T01:08:20.392Z,18.70
2019-02-06T01:10:49.645Z,17.17
2019-02-06T01:13:19.634Z,15.23
2019-02-06T01:15:49.169Z,13.20
2019-02-06T01:18:18.668Z,15.50
2019-02-06T01:20:48.272Z,15.10
2019-02-06T01:23:17.501Z,12.47
2019-02-06T01:25:46.856Z,14.20
2019-02-06T01:28:16.353Z,14.70
2019-02-06T01:30:50.758Z,13.00
2019-02-06T01:33:20.412Z,13.37
2019-02-06T01:35:50.364Z,13.20
2019-02-06T01:38:19.921Z,11.17
2019-02-06T01:40:49.429Z,11.17
2019-02-06T01:43:19.432Z,11.37
2019-02-06T01:45:48.736Z,12.00
2019-02-06T01:48:18.247Z,11.33
2019-02-06T01:50:47.450Z,14.00
2019-02-06T01:53:16.605Z,10.50
2019-02-06T01:55:45.948Z,13.87
2019-02-06T01:58:15.513Z,9.90
2019-02-06T02:00:44.711Z,11.60
2019-02-06T02:03:13.904Z,12.10
2019-02-06T02:05:43.080Z,11.30
2019-02-06T02:08:12.385Z,13.57
2019-02-06T02:10:42.002Z,11.35
2019-02-06T02:13:11.219Z,11.53
2019-02-06T02:15:41.326Z,11.83
2019-02-06T02:18:10.947Z,11.80
2019-02-06T02:20:40.488Z,12.07
2019-02-06T02:23:10.213Z,10.50
2019-02-06T02:25:39.505Z,11.77
2019-02-06T02:28:09.091Z,11.00
2019-02-06T02:30:45.010Z,10.77
2019-02-06T02:33:14.233Z,10.00
2019-02-06T02:35:43.800Z,11.90
2019-02-06T02:38:13.200Z,10.77
2019-02-06T02:40:42.398Z,11.00
2019-02-06T02:43:11.970Z,10.10
2019-02-06T02:45:41.170Z,10.73
2019-02-06T02:48:10.375Z,11.33
2019-02-06T02:50:40.317Z,11.30
2019-02-06T02:53:09.949Z,10.33
2019-02-06T02:55:39.157Z,11.03
2019-02-06T02:58:08.947Z,10.67
2019-02-06T03:01:06.701Z,10.57
2019-02-06T03:03:53.454Z,11.47
2019-02-06T03:06:28.439Z,11.20
2019-02-06T03:08:54.178Z,10.63
2019-02-06T03:11:23.337Z,10.40
2019-02-06T03:13:52.582Z,8.47
2019-02-06T03:16:22.155Z,11.13
2019-02-06T03:18:52.285Z,10.43
2019-02-06T03:21:21.497Z,10.23
2019-02-06T03:23:50.740Z,10.70
2019-02-06T03:26:20.445Z,10.73
2019-02-06T03:28:49.817Z,10.27
2019-02-06T03:31:19.171Z,10.93
2019-02-06T03:33:48.745Z,11.07
2019-02-06T03:36:18.314Z,10.23
2019-02-06T03:38:48.024Z,11.23
2019-02-06T03:41:17.357Z,10.83
2019-02-06T03:43:46.653Z,11.10
2019-02-06T03:46:16.130Z,10.57
2019-02-06T03:48:45.805Z,10.63
2019-02-06T03:51:15.763Z,11.03
2019-02-06T03:53:45.385Z,10.97
2019-02-06T03:56:14.591Z,11.77
2019-02-06T03:58:43.782Z,10.80
2019-02-06T04:01:13.273Z,10.17
2019-02-06T04:03:42.957Z,11.13
2019-02-06T04:06:12.893Z,10.83
2019-02-06T04:08:42.498Z,11.60
2019-02-06T04:11:11.850Z,10.17
2019-02-06T04:13:41.065Z,10.33
2019-02-06T04:16:10.283Z,11.10
2019-02-06T04:18:41.687Z,11.13
2019-02-06T04:21:11.307Z,11.13
2019-02-06T04:23:40.875Z,10.80
2019-02-06T04:26:10.112Z,11.10
2019-02-06T04:28:39.711Z,10.00
2019-02-06T04:31:09.005Z,10.30
2019-02-06T04:33:38.987Z,11.63
2019-02-06T04:36:08.206Z,12.60
2019-02-06T04:38:37.531Z,10.77
2019-02-06T04:41:07.897Z,11.15
2019-02-06T04:43:37.127Z,10.70
2019-02-06T04:46:06.961Z,11.00
2019-02-06T04:48:37.980Z,10.97
2019-02-06T04:51:07.623Z,10.53
2019-02-06T04:53:36.781Z,11.13
2019-02-06T04:56:07.296Z,11.10
2019-02-06T04:58:36.861Z,10.33
2019-02-06T05:01:08.255Z,11.03
2019-02-06T05:03:37.694Z,12.57
2019-02-06T05:06:07.216Z,10.07
2019-02-06T05:08:36.783Z,12.33
2019-02-06T05:11:06.309Z,11.27
2019-02-06T05:13:37.070Z,11.33
2019-02-06T05:16:06.283Z,11.00
2019-02-06T05:18:35.961Z,10.57
2019-02-06T05:21:05.160Z,10.40
2019-02-06T05:23:34.927Z,12.03
2019-02-06T05:26:04.460Z,10.43
2019-02-06T05:28:33.789Z,11.63
2019-02-06T05:31:02.946Z,9.83
2019-02-06T05:33:33.892Z,11.83
2019-02-06T05:36:03.099Z,10.53
2019-02-06T05:38:32.625Z,10.90
2019-02-06T05:41:01.855Z,12.27
2019-02-06T05:43:31.082Z,10.00
2019-02-06T05:46:00.282Z,10.70
2019-02-06T05:48:30.495Z,10.53
2019-02-06T05:51:00.485Z,12.95
2019-02-06T05:53:29.728Z,11.27
2019-02-06T05:55:58.897Z,10.87
2019-02-06T05:58:28.110Z,11.00
2019-02-06T06:00:57.676Z,11.90
2019-02-06T06:03:27.404Z,11.43
2019-02-06T06:05:56.574Z,11.57
2019-02-06T06:08:26.067Z,11.73
2019-02-06T06:10:55.251Z,12.13
2019-02-06T06:13:24.710Z,10.63
2019-02-06T06:15:54.080Z,11.07
2019-02-06T06:18:23.363Z,10.40
2019-02-06T06:20:52.853Z,10.20
2019-02-06T06:23:23.000Z,11.03
2019-02-06T06:25:52.341Z,11.67
2019-02-06T06:28:21.512Z,10.23
2019-02-06T06:30:50.691Z,9.90
2019-02-06T06:33:20.244Z,10.73
2019-02-06T06:35:49.793Z,11.40
2019-02-06T06:38:19.105Z,10.27
2019-02-06T06:40:48.309Z,9.87
2019-02-06T06:43:17.823Z,11.00
2019-02-06T06:45:47.033Z,10.23
2019-02-06T06:48:16.201Z,10.23
2019-02-06T06:50:45.703Z,10.00
2019-02-06T06:53:14.868Z,9.70
2019-02-06T06:55:44.097Z,9.27
2019-02-06T06:58:13.252Z,10.53
2019-02-06T07:00:42.407Z,10.60
2019-02-06T07:03:11.598Z,10.10
2019-02-06T07:05:40.922Z,10.87
2019-02-06T07:08:13.410Z,10.53
2019-02-06T07:10:42.249Z,9.90
2019-02-06T07:13:11.795Z,10.30
2019-02-06T07:15:41.317Z,10.00
2019-02-06T07:18:10.700Z,10.60
2019-02-06T07:20:40.571Z,11.47
2019-02-06T07:23:10.040Z,10.20
2019-02-06T07:25:39.654Z,10.60
2019-02-06T07:28:09.129Z,9.80
2019-02-06T07:30:38.366Z,9.93
2019-02-06T07:33:07.716Z,9.10
2019-02-06T07:35:36.875Z,9.17
2019-02-06T07:38:06.033Z,9.87
2019-02-06T07:40:35.351Z,10.87
2019-02-06T07:43:04.519Z,9.60
2019-02-06T07:45:33.703Z,10.10
2019-02-06T07:48:03.275Z,9.07
2019-02-06T07:50:33.331Z,9.60
2019-02-06T07:53:03.203Z,8.33
2019-02-06T07:55:32.401Z,11.70
2019-02-06T07:58:01.921Z,10.23
2019-02-06T08:00:31.050Z,9.00
2019-02-06T08:03:00.845Z,9.73
2019-02-06T08:05:30.704Z,10.40
2019-02-06T08:07:59.917Z,10.40
2019-02-06T08:10:31.139Z,9.70
2019-02-06T08:13:00.306Z,9.50
2019-02-06T08:15:29.598Z,9.10
2019-02-06T08:17:58.766Z,10.03
2019-02-06T08:20:27.929Z,9.63
2019-02-06T08:22:57.486Z,9.97
2019-02-06T08:25:26.690Z,10.77
2019-02-06T08:27:56.177Z,9.47
2019-02-06T08:30:27.845Z,10.70
2019-02-06T08:32:57.019Z,9.00
2019-02-06T08:35:26.161Z,9.57
2019-02-06T08:37:55.475Z,9.30
2019-02-06T08:40:26.042Z,9.77
2019-02-06T08:42:55.542Z,9.70
2019-02-06T08:45:25.401Z,10.70
2019-02-06T08:47:54.694Z,10.03
2019-02-06T08:50:24.240Z,11.13
2019-02-06T08:52:53.652Z,10.43
2019-02-06T08:55:24.854Z,11.03
2019-02-06T08:57:54.800Z,10.60
2019-02-06T09:00:26.367Z,10.30
2019-02-06T09:02:55.933Z,11.00
2019-02-06T09:05:25.630Z,10.53
2019-02-06T09:07:55.042Z,9.97
2019-02-06T09:10:24.423Z,11.40
2019-02-06T09:12:55.267Z,11.80
2019-02-06T09:15:27.119Z,11.47
2019-02-06T09:17:56.421Z,10.60
2019-02-06T09:20:26.586Z,10.10
2019-02-06T09:22:56.380Z,10.40
2019-02-06T09:25:25.903Z,10.90
2019-02-06T09:27:55.407Z,11.63
2019-02-06T09:30:26.357Z,11.40
2019-02-06T09:32:55.948Z,11.57
2019-02-06T09:35:25.959Z,12.20
2019-02-06T09:37:55.282Z,12.00
2019-02-06T09:40:26.642Z,12.27
2019-02-06T09:42:55.832Z,11.70
2019-02-06T09:45:25.088Z,11.13
2019-02-06T09:47:54.430Z,12.27
2019-02-06T09:50:26.573Z,11.93
2019-02-06T09:52:56.366Z,13.10
2019-02-06T09:55:25.540Z,12.83
2019-02-06T09:57:54.818Z,12.13
2019-02-06T10:00:29.070Z,12.70
2019-02-06T10:02:58.250Z,13.43
2019-02-06T10:05:27.554Z,12.77
2019-02-06T10:07:56.751Z,12.60
2019-02-06T10:10:25.997Z,12.97
2019-02-06T10:12:55.263Z,13.93
2019-02-06T10:15:26.258Z,13.80
2019-02-06T10:17:56.709Z,12.20
2019-02-06T10:20:40.711Z,13.23
2019-02-06T10:23:09.969Z,13.50
2019-02-06T10:25:39.608Z,13.50
2019-02-06T10:28:09.128Z,12.27
2019-02-06T10:30:46.787Z,14.80
2019-02-06T10:33:18.675Z,12.73
2019-02-06T10:35:46.965Z,13.77
2019-02-06T10:38:17.456Z,14.90
2019-02-06T10:40:47.020Z,14.75
2019-02-06T10:43:16.440Z,15.03
2019-02-06T10:45:45.577Z,15.20
2019-02-06T10:48:14.754Z,15.07
2019-02-06T10:50:46.613Z,15.03
2019-02-06T10:53:15.818Z,14.90
2019-02-06T10:55:45.063Z,15.63
2019-02-06T10:58:14.657Z,13.90
2019-02-06T11:00:53.068Z,14.23
2019-02-06T11:03:22.525Z,15.40
2019-02-06T11:05:52.041Z,16.20
2019-02-06T11:08:21.253Z,15.53
2019-02-06T11:10:50.427Z,14.00
2019-02-06T11:13:20.010Z,14.30
2019-02-06T11:15:49.256Z,15.40
2019-02-06T11:18:18.928Z,14.03
2019-02-06T11:20:48.303Z,14.30
2019-02-06T11:23:17.761Z,14.77
2019-02-06T11:25:46.952Z,14.50
2019-02-06T11:28:16.567Z,13.43
2019-02-06T11:30:45.755Z,12.90
2019-02-06T11:33:15.022Z,13.20
2019-02-06T11:35:44.661Z,13.70
2019-02-06T11:38:14.135Z,14.50
2019-02-06T11:40:43.445Z,13.87
2019-02-06T11:43:13.054Z,13.73
2019-02-06T11:45:42.225Z,13.23
2019-02-06T11:48:11.423Z,14.40
2019-02-06T11:50:42.308Z,13.63
2019-02-06T11:53:16.853Z,15.07
2019-02-06T11:55:46.137Z,14.93
2019-02-06T11:58:15.712Z,14.33
2019-02-06T12:01:19.107Z,13.87
2019-02-06T12:03:48.274Z,15.97
2019-02-06T12:06:18.135Z,14.10
2019-02-06T12:08:47.357Z,15.43
2019-02-06T12:11:16.520Z,15.80
2019-02-06T12:13:45.931Z,15.87
2019-02-06T12:16:15.465Z,14.10
2019-02-06T12:18:44.941Z,15.73
2019-02-06T12:21:17.810Z,15.77
2019-02-06T12:23:45.591Z,15.00
2019-02-06T12:26:14.768Z,16.47
2019-02-06T12:28:44.216Z,15.43
2019-02-06T12:31:13.436Z,15.50
2019-02-06T12:33:42.616Z,15.13
2019-02-06T12:36:12.182Z,14.70
2019-02-06T12:38:52.759Z,16.03
2019-02-06T12:41:12.272Z,16.83
2019-02-06T12:43:42.086Z,15.07
2019-02-06T12:46:11.255Z,15.53
2019-02-06T12:48:40.438Z,15.40
2019-02-06T12:51:10.392Z,13.53
2019-02-06T12:53:40.276Z,15.20
2019-02-06T12:56:09.718Z,15.00
2019-02-06T12:58:38.918Z,15.30
2019-02-06T13:01:08.288Z,14.27
2019-02-06T13:03:37.465Z,15.57
2019-02-06T13:06:07.320Z,15.07
2019-02-06T13:08:36.943Z,15.43
2019-02-06T13:11:07.033Z,15.90
2019-02-06T13:13:36.220Z,15.20
2019-02-06T13:16:05.716Z,14.70
2019-02-06T13:18:34.992Z,17.00
2019-02-06T13:21:04.186Z,16.70
2019-02-06T13:23:33.364Z,14.97
2019-02-06T13:26:02.853Z,17.67
2019-02-06T13:28:32.165Z,17.53
2019-02-06T13:31:01.351Z,17.20
2019-02-06T13:33:30.560Z,18.07
2019-02-06T13:36:00.195Z,17.90
2019-02-06T13:38:29.381Z,17.17
2019-02-06T13:40:58.556Z,18.23
2019-02-06T13:43:27.691Z,18.03
2019-02-06T13:45:56.961Z,18.43
2019-02-06T13:48:26.134Z,18.67
2019-02-06T13:50:55.563Z,18.83
2019-02-06T13:53:24.730Z,18.07
2019-02-06T13:55:53.934Z,18.63
2019-02-06T13:58:23.756Z,17.00
2019-02-06T14:00:53.018Z,17.60
2019-02-06T14:03:22.273Z,18.27
2019-02-06T14:05:51.887Z,18.90
2019-02-06T14:08:21.125Z,18.27
2019-02-06T14:11:00.290Z,18.97
2019-02-06T14:13:21.703Z,18.70
2019-02-06T14:15:50.877Z,19.20
2019-02-06T14:18:20.105Z,19.40
2019-02-06T14:20:52.274Z,18.20
2019-02-06T14:23:25.470Z,17.50
2019-02-06T14:26:10.441Z,16.73
2019-02-06T14:29:06.235Z,17.77
2019-02-06T14:32:09.433Z,17.83
2019-02-06T14:35:08.988Z,18.37
2019-02-06T14:38:27.371Z,18.20
2019-02-06T14:41:20.769Z,16.77
2019-02-06T14:44:37.314Z,19.30
2019-02-06T14:47:40.079Z,17.50
2019-02-06T14:50:37.550Z,17.23
2019-02-06T14:53:44.647Z,17.93
2019-02-06T14:56:39.196Z,19.40
2019-02-06T14:59:36.931Z,18.57
2019-02-06T15:02:57.030Z,19.03
2019-02-06T15:06:10.378Z,19.40
2019-02-06T15:09:40.105Z,16.97
2019-02-06T15:12:33.473Z,20.33
2019-02-06T15:15:43.361Z,18.20
2019-02-06T15:18:50.355Z,20.70
2019-02-06T15:21:57.126Z,20.50
2019-02-06T15:25:04.536Z,20.23
2019-02-06T15:28:13.985Z,20.97
2019-02-06T15:31:39.482Z,22.40
2019-02-06T15:34:41.386Z,21.10
2019-02-06T15:37:28.024Z,21.40
2019-02-06T15:40:15.810Z,19.60
2019-02-06T15:43:00.064Z,22.73
2019-02-06T15:46:08.945Z,22.23
2019-02-06T15:49:04.113Z,22.90
2019-02-06T15:52:17.125Z,24.03
2019-02-06T15:55:39.546Z,23.07
2019-02-06T15:58:36.324Z,23.03
2019-02-06T16:01:44.257Z,24.33
2019-02-06T16:05:05.734Z,22.87
2019-02-06T16:08:05.571Z,27.23
2019-02-06T16:11:03.101Z,38.43
2019-02-06T16:14:24.468Z,27.90
2019-02-06T16:17:37.028Z,41.70
2019-02-06T16:20:31.516Z,38.53
2019-02-06T16:23:49.951Z,33.97
2019-02-06T16:27:06.411Z,30.63
2019-02-06T16:30:26.020Z,32.87
2019-02-06T16:33:19.515Z,41.47
2019-02-06T16:36:25.640Z,25.20
2019-02-06T16:39:17.546Z,29.90
2019-02-06T16:42:23.649Z,31.73
2019-02-06T16:45:46.048Z,36.17
2019-02-06T16:48:55.043Z,27.20
2019-02-06T16:51:31.752Z,27.97
2019-02-06T16:54:33.304Z,30.10
2019-02-06T16:57:38.924Z,28.43
2019-02-06T17:00:33.857Z,28.80
2019-02-06T17:03:41.380Z,27.30
2019-02-06T17:06:38.040Z,32.83
2019-02-06T17:09:58.091Z,31.93
2019-02-06T17:12:56.886Z,28.23
2019-02-06T17:16:07.694Z,32.53
2019-02-06T17:19:20.041Z,35.00
2019-02-06T17:22:13.976Z,32.17
2019-02-06T17:25:26.539Z,50.90
2019-02-06T17:28:28.011Z,40.27
2019-02-06T17:31:14.080Z,31.47
2019-02-06T17:34:09.855Z,27.27
2019-02-06T17:37:01.561Z,30.27
2019-02-06T17:40:03.196Z,28.20
2019-02-06T17:42:58.133Z,28.73
2019-02-06T17:46:07.613Z,29.30
2019-02-06T17:49:12.560Z,29.83
2019-02-06T17:52:23.320Z,29.20
2019-02-06T17:55:25.287Z,28.17
2019-02-06T17:58:06.453Z,30.30
2019-02-06T18:01:04.710Z,32.77
2019-02-06T18:03:38.787Z,32.73
2019-02-06T18:06:08.984Z,31.90
2019-02-06T18:08:40.785Z,32.47
2019-02-06T18:11:10.483Z,30.97
2019-02-06T18:13:40.249Z,32.10
2019-02-06T18:16:20.811Z,31.83
2019-02-06T18:18:40.576Z,31.00
2019-02-06T18:21:10.346Z,30.90
2019-02-06T18:23:39.825Z,33.40
2019-02-06T18:26:09.055Z,33.83
2019-02-06T18:28:39.685Z,33.60
2019-02-06T18:31:09.362Z,34.13
2019-02-06T18:33:38.952Z,32.23
2019-02-06T18:36:08.569Z,32.90
2019-02-06T18:38:46.613Z,33.40
2019-02-06T18:41:11.414Z,43.77
2019-02-06T18:43:40.624Z,35.03
2019-02-06T18:46:10.090Z,39.20
2019-02-06T18:48:39.706Z,32.40
2019-02-06T18:51:08.847Z,34.83
2019-02-06T18:53:38.064Z,31.90
2019-02-06T18:56:07.334Z,34.67
2019-02-06T18:58:36.560Z,32.47
2019-02-06T19:01:07.043Z,32.30
2019-02-06T19:03:39.666Z,33.60
2019-02-06T19:06:09.214Z,35.33
2019-02-06T19:08:40.094Z,33.50
2019-02-06T19:11:09.865Z,32.37
2019-02-06T19:13:39.052Z,37.47
2019-02-06T19:16:08.287Z,35.00
2019-02-06T19:18:37.800Z,34.80
2019-02-06T19:21:07.271Z,36.10
2019-02-06T19:23:36.845Z,32.47
2019-02-06T19:26:06.427Z,34.20
2019-02-06T19:28:36.172Z,34.10
2019-02-06T19:31:05.684Z,40.53
2019-02-06T19:33:34.836Z,33.20
2019-02-06T19:36:04.447Z,34.40
2019-02-06T19:38:34.020Z,38.87
2019-02-06T19:41:03.611Z,36.93
2019-02-06T19:43:33.133Z,35.80
2019-02-06T19:46:02.348Z,34.23
2019-02-06T19:48:32.256Z,36.70
2019-02-06T19:51:01.462Z,32.90
2019-02-06T19:53:30.667Z,33.90
2019-02-06T19:55:59.881Z,32.17
2019-02-06T19:58:29.764Z,33.47
2019-02-06T20:00:59.400Z,39.40
2019-02-06T20:03:28.555Z,34.00
2019-02-06T20:05:58.105Z,34.50
2019-02-06T20:08:27.697Z,33.27
2019-02-06T20:10:57.601Z,33.27
2019-02-06T20:13:26.768Z,31.80
2019-02-06T20:15:56.529Z,31.83
2019-02-06T20:18:25.818Z,34.90
2019-02-06T20:20:55.332Z,32.30
2019-02-06T20:23:24.582Z,32.60
2019-02-06T20:25:54.189Z,30.10
2019-02-06T20:28:23.490Z,29.40
2019-02-06T20:30:52.693Z,30.67
2019-02-06T20:33:22.319Z,29.80
2019-02-06T20:35:51.521Z,32.60
2019-02-06T20:38:20.728Z,31.60
2019-02-06T20:40:50.241Z,29.77
2019-02-06T20:43:22.271Z,32.17
2019-02-06T20:45:50.861Z,34.47
2019-02-06T20:48:20.740Z,41.67
2019-02-06T20:50:51.613Z,33.70
2019-02-06T20:53:21.153Z,34.10
2019-02-06T20:55:50.363Z,35.90
2019-02-06T20:58:19.560Z,33.10
2019-02-06T21:00:49.193Z,33.37
2019-02-06T21:03:18.806Z,34.30
2019-02-06T21:05:48.688Z,34.87
2019-02-06T21:08:18.338Z,35.80
2019-02-06T21:10:48.176Z,32.97
2019-02-06T21:13:19.070Z,37.20
2019-02-06T21:15:48.314Z,37.40
2019-02-06T21:18:17.535Z,33.17
2019-02-06T21:20:46.782Z,35.57
2019-02-06T21:23:16.371Z,35.90
2019-02-06T21:25:46.178Z,35.15
2019-02-06T21:28:15.854Z,36.40
2019-02-06T21:30:47.003Z,33.03
2019-02-06T21:33:15.936Z,37.93
2019-02-06T21:35:45.162Z,35.70
2019-02-06T21:38:14.309Z,32.23
2019-02-06T21:40:43.819Z,32.43
2019-02-06T21:43:13.015Z,34.00
2019-02-06T21:45:42.253Z,32.67
2019-02-06T21:48:12.031Z,33.13
2019-02-06T21:50:41.472Z,33.80
2019-02-06T21:53:11.131Z,31.90
2019-02-06T21:55:40.338Z,34.03
2019-02-06T21:58:09.863Z,33.70
2019-02-06T22:00:40.974Z,32.23
2019-02-06T22:03:10.972Z,33.10
2019-02-06T22:05:40.553Z,31.53
2019-02-06T22:08:09.761Z,38.30
2019-02-06T22:10:38.943Z,34.90
2019-02-06T22:13:08.838Z,31.20
2019-02-06T22:15:38.303Z,32.33
2019-02-06T22:18:07.947Z,31.67
2019-02-06T22:20:37.104Z,33.50
2019-02-06T22:23:06.285Z,33.50
2019-02-06T22:25:35.524Z,33.63
2019-02-06T22:28:04.700Z,34.40
2019-02-06T22:30:34.066Z,35.37
2019-02-06T22:33:03.631Z,34.10
2019-02-06T22:35:32.931Z,35.37
2019-02-06T22:38:02.098Z,36.10
2019-02-06T22:40:31.296Z,37.07
2019-02-06T22:43:00.565Z,33.90
2019-02-06T22:45:30.096Z,39.70
2019-02-06T22:47:59.573Z,38.27
2019-02-06T22:50:28.912Z,38.47
2019-02-06T22:52:58.235Z,40.10
2019-02-06T22:55:27.784Z,38.50
2019-02-06T22:57:56.980Z,38.77
2019-02-06T23:00:56.850Z,39.80
2019-02-06T23:03:38.342Z,41.73
2019-02-06T23:06:09.074Z,39.53
2019-02-06T23:08:38.358Z,38.33
2019-02-06T23:11:07.622Z,39.17
2019-02-06T23:13:37.420Z,37.80
2019-02-06T23:16:07.044Z,38.90
2019-02-06T23:18:36.217Z,38.77
2019-02-06T23:21:05.595Z,38.80
2019-02-06T23:23:35.130Z,36.07
2019-02-06T23:26:04.399Z,35.73
2019-02-06T23:28:33.998Z,39.03
2019-02-06T23:31:03.181Z,37.07
2019-02-06T23:33:32.332Z,33.30
2019-02-06T23:36:01.893Z,36.60
2019-02-06T23:38:31.356Z,37.13
2019-02-06T23:41:00.909Z,35.95
2019-02-06T23:43:30.272Z,34.30
2019-02-06T23:45:59.423Z,35.13
2019-02-06T23:48:28.958Z,34.73
2019-02-06T23:50:58.110Z,29.53
2019-02-06T23:53:27.573Z,33.50
2019-02-06T23:55:56.864Z,33.67
2019-02-06T23:58:26.035Z,34.87
